createdAt,value
2018-07-04T00:02:14.228Z,7.73
2018-07-04T00:04:52.706Z,7.80
2018-07-04T00:07:31.201Z,6.37
2018-07-04T00:10:09.640Z,9.37
2018-07-04T00:12:48.146Z,8.93
2018-07-04T00:15:26.591Z,7.50
2018-07-04T00:18:05.265Z,8.80
2018-07-04T00:20:43.728Z,8.77
2018-07-04T00:23:22.207Z,8.87
2018-07-04T00:26:00.897Z,9.77
2018-07-04T00:28:39.452Z,9.70
2018-07-04T00:31:18.081Z,9.67
2018-07-04T00:33:56.635Z,8.33
2018-07-04T00:36:35.300Z,6.70
2018-07-04T00:39:13.845Z,7.17
2018-07-04T00:41:52.378Z,7.13
2018-07-04T00:44:30.857Z,7.50
2018-07-04T00:47:09.509Z,10.27
2018-07-04T00:49:47.928Z,9.50
2018-07-04T00:52:26.535Z,10.67
2018-07-04T00:55:05.173Z,8.70
2018-07-04T00:57:43.776Z,11.20
2018-07-04T01:00:22.317Z,10.57
2018-07-04T01:03:00.810Z,9.17
2018-07-04T01:05:39.349Z,8.20
2018-07-04T01:08:17.953Z,7.17
2018-07-04T01:10:56.549Z,7.73
2018-07-04T01:13:35.069Z,8.30
2018-07-04T01:16:13.699Z,9.40
2018-07-04T01:18:52.479Z,10.13
2018-07-04T01:21:31.050Z,11.13
2018-07-04T01:24:09.708Z,7.80
2018-07-04T01:26:48.212Z,8.03
2018-07-04T01:29:26.636Z,8.50
2018-07-04T01:32:05.465Z,9.20
2018-07-04T01:34:44.014Z,7.53
2018-07-04T01:37:22.500Z,7.40
2018-07-04T01:40:01.013Z,7.63
2018-07-04T01:42:39.515Z,7.70
2018-07-04T01:45:18.096Z,7.97
2018-07-04T01:47:56.728Z,8.53
2018-07-04T01:50:35.183Z,8.07
2018-07-04T01:53:13.792Z,8.13
2018-07-04T01:55:52.426Z,7.30
2018-07-04T01:58:31.049Z,7.00
2018-07-04T02:01:09.649Z,8.37
2018-07-04T02:03:48.140Z,7.90
2018-07-04T02:06:26.657Z,8.07
2018-07-04T02:09:05.264Z,7.80
2018-07-04T02:11:43.768Z,8.30
2018-07-04T02:14:22.264Z,7.43
2018-07-04T02:17:00.644Z,7.73
2018-07-04T02:19:39.086Z,7.37
2018-07-04T02:22:17.607Z,8.17
2018-07-04T02:24:56.228Z,8.50
2018-07-04T02:27:34.645Z,8.00
2018-07-04T02:30:13.144Z,7.97
2018-07-04T02:32:51.652Z,8.60
2018-07-04T02:35:30.361Z,7.43
2018-07-04T02:38:08.916Z,7.70
2018-07-04T02:40:47.452Z,10.27
2018-07-04T02:43:26.071Z,9.07
2018-07-04T02:46:04.589Z,9.00
2018-07-04T02:48:43.149Z,10.33
2018-07-04T02:51:21.656Z,8.67
2018-07-04T02:54:00.309Z,10.17
2018-07-04T02:56:38.728Z,10.13
2018-07-04T02:59:17.152Z,9.10
2018-07-04T03:01:55.640Z,9.70
2018-07-04T03:04:34.289Z,9.20
2018-07-04T03:07:12.829Z,8.93
2018-07-04T03:09:51.348Z,9.63
2018-07-04T03:12:29.864Z,10.17
2018-07-04T03:15:08.377Z,10.43
2018-07-04T03:17:46.902Z,10.77
2018-07-04T03:20:25.301Z,10.30
2018-07-04T03:23:03.735Z,10.10
2018-07-04T03:25:42.248Z,10.43
2018-07-04T03:28:20.673Z,10.50
2018-07-04T03:30:59.166Z,9.87
2018-07-04T03:33:37.912Z,10.37
2018-07-04T03:36:16.716Z,11.40
2018-07-04T03:38:55.510Z,10.93
2018-07-04T03:41:34.077Z,10.97
2018-07-04T03:44:12.595Z,12.10
2018-07-04T03:46:51.116Z,10.87
2018-07-04T03:49:29.859Z,11.50
2018-07-04T03:52:08.473Z,11.10
2018-07-04T03:54:47.107Z,12.30
2018-07-04T03:57:25.605Z,12.87
2018-07-04T04:00:03.988Z,13.80
2018-07-04T04:02:42.393Z,14.17
2018-07-04T04:05:21.212Z,13.83
2018-07-04T04:07:59.653Z,13.17
2018-07-04T04:10:38.152Z,11.67
2018-07-04T04:13:16.583Z,12.07
2018-07-04T04:15:55.121Z,12.30
2018-07-04T04:18:33.644Z,11.63
2018-07-04T04:21:12.224Z,11.37
2018-07-04T04:23:50.788Z,11.10
2018-07-04T04:26:29.322Z,10.70
2018-07-04T04:29:07.984Z,10.33
2018-07-04T04:31:46.541Z,10.50
2018-07-04T04:34:25.257Z,11.70
2018-07-04T04:37:03.932Z,10.23
2018-07-04T04:39:42.288Z,9.17
2018-07-04T04:42:20.906Z,10.07
2018-07-04T04:44:59.442Z,9.60
2018-07-04T04:47:38.014Z,9.33
2018-07-04T04:50:16.465Z,8.33
2018-07-04T04:52:55.063Z,9.67
2018-07-04T04:55:33.516Z,8.93
2018-07-04T04:58:12.177Z,8.37
2018-07-04T05:00:50.836Z,8.67
2018-07-04T05:03:29.601Z,8.27
2018-07-04T05:06:07.996Z,7.67
2018-07-04T05:08:46.604Z,6.43
2018-07-04T05:11:25.101Z,6.53
2018-07-04T05:14:03.758Z,5.80
2018-07-04T05:16:42.217Z,5.47
2018-07-04T05:19:20.696Z,5.37
2018-07-04T05:21:59.220Z,5.23
2018-07-04T05:24:37.716Z,4.90
2018-07-04T05:27:16.113Z,5.20
2018-07-04T05:29:54.672Z,3.57
2018-07-04T05:32:33.339Z,4.10
2018-07-04T05:35:11.807Z,3.60
2018-07-04T05:37:50.335Z,3.57
2018-07-04T05:40:28.909Z,2.97
2018-07-04T05:43:07.580Z,2.37
2018-07-04T05:45:46.064Z,2.63
2018-07-04T05:48:24.587Z,2.60
2018-07-04T05:51:03.127Z,2.50
2018-07-04T05:53:41.712Z,2.40
2018-07-04T05:56:20.246Z,2.60
2018-07-04T05:58:58.739Z,2.43
2018-07-04T06:01:37.296Z,2.07
2018-07-04T06:04:15.930Z,2.20
2018-07-04T06:06:54.538Z,2.40
2018-07-04T06:09:33.117Z,1.90
2018-07-04T06:12:11.668Z,2.07
2018-07-04T06:14:50.397Z,2.33
2018-07-04T06:17:29.096Z,2.07
2018-07-04T06:20:08.172Z,2.10
2018-07-04T06:22:46.600Z,1.60
2018-07-04T06:25:25.224Z,2.40
2018-07-04T06:28:03.788Z,2.07
2018-07-04T06:30:42.316Z,2.07
2018-07-04T06:33:20.837Z,1.93
2018-07-04T06:35:59.257Z,2.20
2018-07-04T06:38:25.264Z,1.60
2018-07-04T06:40:51.305Z,1.93
2018-07-04T06:43:17.331Z,1.73
2018-07-04T06:45:43.401Z,1.80
2018-07-04T06:48:09.436Z,1.90
2018-07-04T06:50:35.483Z,1.83
2018-07-04T06:53:01.516Z,1.70
2018-07-04T06:55:27.541Z,1.80
2018-07-04T06:57:53.586Z,1.60
2018-07-04T07:00:19.608Z,2.07
2018-07-04T07:02:45.641Z,1.50
2018-07-04T07:05:24.301Z,2.50
2018-07-04T07:08:02.741Z,2.70
2018-07-04T07:10:41.164Z,2.73
2018-07-04T07:13:19.689Z,2.27
2018-07-04T07:15:58.304Z,2.30
2018-07-04T07:18:36.817Z,1.87
2018-07-04T07:21:15.246Z,2.00
2018-07-04T07:23:53.864Z,2.10
2018-07-04T07:26:32.405Z,1.87
2018-07-04T07:29:10.871Z,2.20
2018-07-04T07:31:49.435Z,1.83
2018-07-04T07:34:28.065Z,1.73
2018-07-04T07:37:06.545Z,1.70
2018-07-04T07:39:44.992Z,1.73
2018-07-04T07:42:23.468Z,1.50
2018-07-04T07:45:02.030Z,1.70
2018-07-04T07:47:40.445Z,1.67
2018-07-04T07:50:18.954Z,1.43
2018-07-04T07:52:57.516Z,1.77
2018-07-04T07:55:36.273Z,1.97
2018-07-04T07:58:14.935Z,1.50
2018-07-04T08:00:53.539Z,1.93
2018-07-04T08:03:31.984Z,2.07
2018-07-04T08:06:11.476Z,2.40
2018-07-04T08:08:50.098Z,2.23
2018-07-04T08:11:28.708Z,1.87
2018-07-04T08:14:07.301Z,2.20
2018-07-04T08:16:45.884Z,2.57
2018-07-04T08:19:24.418Z,4.37
2018-07-04T08:22:03.072Z,5.10
2018-07-04T08:24:41.598Z,5.70
2018-07-04T08:27:20.249Z,6.87
2018-07-04T08:29:58.707Z,7.07
2018-07-04T08:32:37.179Z,7.00
2018-07-04T08:35:15.680Z,7.27
2018-07-04T08:37:54.156Z,8.30
2018-07-04T08:40:32.860Z,7.70
2018-07-04T08:43:11.596Z,8.47
2018-07-04T08:45:50.649Z,8.53
2018-07-04T08:48:29.295Z,8.60
2018-07-04T08:51:07.880Z,7.57
2018-07-04T08:53:46.428Z,6.47
2018-07-04T08:56:24.900Z,7.00
2018-07-04T08:59:03.428Z,5.73
2018-07-04T09:01:41.840Z,5.60
2018-07-04T09:04:20.481Z,5.87
2018-07-04T09:06:59.049Z,5.17
2018-07-04T09:09:37.789Z,4.57
2018-07-04T09:12:16.420Z,4.07
2018-07-04T09:14:54.941Z,4.10
2018-07-04T09:17:33.564Z,3.20
2018-07-04T09:20:12.092Z,3.40
2018-07-04T09:22:50.808Z,3.23
2018-07-04T09:25:29.352Z,2.90
2018-07-04T09:28:07.941Z,2.60
2018-07-04T09:30:46.317Z,2.80
2018-07-04T09:33:24.888Z,2.83
2018-07-04T09:36:03.428Z,2.70
2018-07-04T09:38:42.007Z,3.17
2018-07-04T09:41:20.512Z,3.30
2018-07-04T09:43:59.021Z,3.37
2018-07-04T09:46:37.556Z,2.67
2018-07-04T09:49:16.081Z,2.87
2018-07-04T09:51:54.554Z,2.67
2018-07-04T09:54:33.156Z,2.67
2018-07-04T09:57:11.736Z,2.33
2018-07-04T09:59:50.189Z,2.27
2018-07-04T10:02:28.775Z,2.30
2018-07-04T10:05:07.556Z,1.90
2018-07-04T10:07:46.233Z,2.00
2018-07-04T10:10:24.813Z,2.10
2018-07-04T10:13:03.253Z,2.10
2018-07-04T10:15:41.759Z,2.40
2018-07-04T10:18:20.392Z,2.37
2018-07-04T10:20:59.032Z,2.43
2018-07-04T10:23:37.529Z,2.10
2018-07-04T10:26:16.005Z,2.37
2018-07-04T10:28:54.545Z,2.30
2018-07-04T10:31:32.948Z,2.37
2018-07-04T10:34:11.547Z,2.40
2018-07-04T10:36:50.049Z,2.40
2018-07-04T10:39:28.552Z,2.17
2018-07-04T10:42:07.091Z,2.37
2018-07-04T10:44:45.559Z,2.43
2018-07-04T10:47:23.990Z,2.40
2018-07-04T10:50:02.386Z,2.00
2018-07-04T10:52:40.885Z,2.30
2018-07-04T10:55:19.465Z,2.70
2018-07-04T10:57:57.812Z,2.63
2018-07-04T11:00:36.357Z,2.60
2018-07-04T11:03:14.904Z,2.20
2018-07-04T11:05:53.945Z,2.57
2018-07-04T11:08:32.444Z,1.90
2018-07-04T11:11:11.121Z,2.47
2018-07-04T11:13:49.825Z,2.40
2018-07-04T11:16:28.286Z,2.30
2018-07-04T11:19:06.805Z,2.07
2018-07-04T11:21:45.286Z,4.87
2018-07-04T11:24:23.861Z,2.30
2018-07-04T11:27:02.408Z,2.53
2018-07-04T11:29:40.781Z,2.07
2018-07-04T11:32:19.408Z,2.17
2018-07-04T11:34:57.937Z,1.90
2018-07-04T11:37:36.446Z,2.10
2018-07-04T11:40:14.981Z,2.00
2018-07-04T11:42:53.717Z,2.33
2018-07-04T11:45:32.265Z,1.93
2018-07-04T11:47:58.319Z,2.17
2018-07-04T11:50:24.343Z,2.30
2018-07-04T11:52:50.369Z,2.00
2018-07-04T11:55:16.411Z,2.03
2018-07-04T11:57:42.433Z,1.87
2018-07-04T12:00:08.464Z,2.20
2018-07-04T12:02:34.485Z,1.90
2018-07-04T12:05:13.134Z,1.90
2018-07-04T12:07:39.145Z,1.90
2018-07-04T12:10:05.174Z,1.80
2018-07-04T12:12:31.188Z,1.83
2018-07-04T12:14:57.224Z,2.00
2018-07-04T12:17:23.251Z,1.80
2018-07-04T12:19:49.280Z,2.50
2018-07-04T12:22:15.303Z,2.10
2018-07-04T12:24:41.329Z,1.70
2018-07-04T12:27:07.342Z,2.20
2018-07-04T12:29:33.372Z,1.50
2018-07-04T12:31:59.428Z,1.70
2018-07-04T12:34:25.455Z,2.03
2018-07-04T12:36:51.477Z,2.17
2018-07-04T12:39:17.500Z,1.93
2018-07-04T12:41:43.532Z,2.00
2018-07-04T12:44:09.563Z,1.90
2018-07-04T12:46:35.603Z,1.77
2018-07-04T12:49:02.704Z,1.70
2018-07-04T12:51:30.284Z,1.50
2018-07-04T12:55:01.786Z,1.77
2018-07-04T12:57:40.382Z,1.60
2018-07-04T13:00:18.872Z,1.63
2018-07-04T13:02:57.356Z,1.80
2018-07-04T13:05:35.804Z,1.77
2018-07-04T13:08:14.320Z,1.53
2018-07-04T13:10:52.910Z,1.53
2018-07-04T13:13:31.541Z,1.90
2018-07-04T13:16:09.922Z,1.70
2018-07-04T13:18:48.571Z,2.00
2018-07-04T13:21:27.208Z,1.80
2018-07-04T13:24:05.757Z,1.77
2018-07-04T13:26:44.285Z,1.33
2018-07-04T13:29:22.916Z,1.50
2018-07-04T13:32:01.468Z,1.70
2018-07-04T13:34:39.977Z,1.50
2018-07-04T13:37:18.525Z,1.40
2018-07-04T13:39:57.033Z,1.93
2018-07-04T13:42:35.542Z,2.50
2018-07-04T13:45:13.928Z,1.33
2018-07-04T13:47:52.496Z,1.30
2018-07-04T13:50:31.013Z,1.93
2018-07-04T13:53:09.504Z,1.30
2018-07-04T13:55:47.917Z,1.33
2018-07-04T13:58:26.448Z,1.20
2018-07-04T14:01:04.926Z,1.30
2018-07-04T14:03:43.644Z,1.60
2018-07-04T14:06:23.173Z,1.67
2018-07-04T14:09:01.668Z,1.70
2018-07-04T14:11:40.249Z,1.47
2018-07-04T14:14:18.947Z,1.67
2018-07-04T14:16:57.740Z,1.80
2018-07-04T14:19:36.264Z,1.60
2018-07-04T14:22:14.932Z,1.90
2018-07-04T14:24:53.371Z,1.30
2018-07-04T14:27:31.837Z,1.40
2018-07-04T14:30:10.315Z,1.30
2018-07-04T14:32:49.073Z,1.50
2018-07-04T14:35:27.516Z,1.53
2018-07-04T14:38:06.005Z,1.27
2018-07-04T14:40:44.599Z,1.80
2018-07-04T14:43:23.117Z,1.20
2018-07-04T14:46:01.629Z,1.10
2018-07-04T14:48:40.269Z,1.40
2018-07-04T14:51:18.956Z,1.50
2018-07-04T14:53:57.621Z,1.80
2018-07-04T14:56:36.212Z,2.10
2018-07-04T14:59:14.711Z,1.80
2018-07-04T15:01:53.269Z,1.40
2018-07-04T15:04:31.937Z,1.40
2018-07-04T15:07:10.492Z,1.97
2018-07-04T15:09:49.096Z,1.93
2018-07-04T15:12:27.745Z,1.90
2018-07-04T15:15:06.160Z,2.00
2018-07-04T15:17:44.708Z,1.80
2018-07-04T15:20:23.442Z,1.50
2018-07-04T15:23:01.878Z,1.60
2018-07-04T15:25:40.380Z,1.90
2018-07-04T15:28:19.079Z,1.83
2018-07-04T15:30:57.775Z,1.93
2018-07-04T15:33:36.357Z,1.67
2018-07-04T15:36:14.905Z,1.47
2018-07-04T15:38:53.873Z,2.10
2018-07-04T15:41:32.454Z,1.90
2018-07-04T15:44:11.060Z,2.50
2018-07-04T15:46:49.686Z,2.57
2018-07-04T15:49:28.264Z,2.07
2018-07-04T15:52:06.800Z,2.13
2018-07-04T15:54:45.294Z,2.13
2018-07-04T15:57:23.814Z,1.80
2018-07-04T16:00:02.415Z,1.77
2018-07-04T16:02:41.048Z,2.07
2018-07-04T16:05:19.544Z,1.80
2018-07-04T16:07:58.101Z,2.50
2018-07-04T16:10:36.560Z,2.00
2018-07-04T16:13:15.084Z,1.83
2018-07-04T16:15:53.621Z,2.50
2018-07-04T16:18:32.148Z,2.13
2018-07-04T16:21:10.649Z,2.70
2018-07-04T16:23:49.089Z,2.53
2018-07-04T16:26:27.468Z,3.00
2018-07-04T16:29:06.051Z,1.70
2018-07-04T16:31:44.549Z,1.60
2018-07-04T16:34:23.137Z,1.80
2018-07-04T16:37:01.560Z,2.37
2018-07-04T16:39:40.199Z,1.80
2018-07-04T16:42:18.703Z,1.60
2018-07-04T16:44:57.852Z,2.00
2018-07-04T16:47:36.345Z,1.70
2018-07-04T16:50:14.941Z,1.70
2018-07-04T16:52:53.484Z,1.93
2018-07-04T16:55:31.972Z,1.80
2018-07-04T16:58:10.417Z,1.87
2018-07-04T17:00:48.930Z,1.70
2018-07-04T17:03:27.464Z,1.87
2018-07-04T17:06:06.800Z,1.60
2018-07-04T17:08:45.276Z,1.73
2018-07-04T17:11:23.949Z,1.73
2018-07-04T17:14:02.456Z,1.73
2018-07-04T17:16:40.861Z,1.53
2018-07-04T17:19:19.385Z,1.97
2018-07-04T17:21:58.032Z,1.60
2018-07-04T17:24:36.649Z,1.50
2018-07-04T17:27:15.214Z,1.60
2018-07-04T17:29:53.862Z,1.57
2018-07-04T17:32:32.478Z,1.40
2018-07-04T17:35:11.021Z,1.37
2018-07-04T17:37:49.520Z,1.60
2018-07-04T17:40:28.073Z,1.50
2018-07-04T17:43:06.613Z,1.50
2018-07-04T17:45:45.072Z,1.30
2018-07-04T17:48:23.709Z,1.30
2018-07-04T17:51:02.231Z,1.40
2018-07-04T17:53:40.732Z,1.47
2018-07-04T17:56:19.209Z,1.67
2018-07-04T17:58:57.756Z,1.30
2018-07-04T18:01:36.407Z,1.53
2018-07-04T18:04:15.164Z,1.40
2018-07-04T18:06:53.743Z,1.40
2018-07-04T18:09:32.271Z,1.63
2018-07-04T18:12:10.956Z,1.60
2018-07-04T18:14:49.368Z,1.27
2018-07-04T18:17:27.846Z,1.33
2018-07-04T18:20:06.402Z,1.57
2018-07-04T18:22:44.881Z,1.40
2018-07-04T18:25:23.466Z,1.27
2018-07-04T18:28:01.965Z,1.20
2018-07-04T18:30:40.480Z,1.30
2018-07-04T18:33:18.993Z,1.17
2018-07-04T18:35:57.618Z,1.20
2018-07-04T18:38:36.264Z,1.00
2018-07-04T18:41:14.686Z,1.40
2018-07-04T18:43:53.089Z,1.50
2018-07-04T18:46:31.521Z,1.40
2018-07-04T18:49:10.261Z,1.40
2018-07-04T18:51:48.760Z,1.50
2018-07-04T18:54:27.380Z,1.77
2018-07-04T18:57:05.966Z,1.53
2018-07-04T18:59:44.313Z,1.50
2018-07-04T19:02:22.767Z,1.57
2018-07-04T19:05:01.422Z,1.50
2018-07-04T19:07:40.069Z,1.50
2018-07-04T19:10:18.621Z,1.43
2018-07-04T19:12:57.113Z,1.63
2018-07-04T19:15:35.692Z,1.40
2018-07-04T19:18:14.089Z,1.50
2018-07-04T19:20:52.705Z,1.30
2018-07-04T19:23:31.404Z,1.30
2018-07-04T19:26:09.914Z,1.40
2018-07-04T19:28:48.468Z,1.50
2018-07-04T19:31:26.957Z,1.40
2018-07-04T19:34:05.355Z,1.20
2018-07-04T19:36:43.732Z,1.20
2018-07-04T19:39:22.128Z,1.30
2018-07-04T19:42:00.737Z,1.53
2018-07-04T19:44:39.148Z,1.37
2018-07-04T19:47:17.617Z,1.60
2018-07-04T19:49:56.041Z,1.70
2018-07-04T19:52:34.669Z,1.80
2018-07-04T19:55:13.092Z,1.73
2018-07-04T19:57:51.590Z,2.07
2018-07-04T20:00:30.136Z,2.00
2018-07-04T20:03:08.669Z,2.00
2018-07-04T20:05:47.164Z,2.10
2018-07-04T20:08:25.843Z,2.20
2018-07-04T20:11:04.308Z,2.20
2018-07-04T20:13:42.833Z,2.10
2018-07-04T20:16:21.623Z,2.53
2018-07-04T20:19:00.180Z,2.20
2018-07-04T20:21:38.739Z,2.83
2018-07-04T20:24:17.265Z,2.50
2018-07-04T20:26:55.897Z,2.63
2018-07-04T20:29:34.396Z,2.73
2018-07-04T20:32:12.976Z,2.53
2018-07-04T20:34:51.485Z,2.30
2018-07-04T20:37:30.023Z,2.33
2018-07-04T20:40:08.546Z,2.50
2018-07-04T20:42:47.087Z,2.60
2018-07-04T20:45:25.593Z,2.60
2018-07-04T20:48:04.105Z,2.40
2018-07-04T20:50:42.592Z,2.60
2018-07-04T20:53:20.904Z,2.50
2018-07-04T20:55:59.329Z,2.73
2018-07-04T20:58:37.947Z,2.80
2018-07-04T21:01:16.336Z,2.70
2018-07-04T21:03:54.837Z,2.77
2018-07-04T21:06:33.449Z,2.90
2018-07-04T21:09:11.893Z,2.60
2018-07-04T21:11:50.737Z,2.93
2018-07-04T21:14:29.237Z,2.77
2018-07-04T21:17:07.773Z,2.70
2018-07-04T21:19:46.312Z,2.57
2018-07-04T21:22:24.915Z,2.70
2018-07-04T21:25:03.521Z,2.63
2018-07-04T21:27:42.046Z,3.03
2018-07-04T21:30:20.581Z,3.23
2018-07-04T21:32:59.220Z,3.00
2018-07-04T21:35:37.694Z,3.30
2018-07-04T21:38:16.241Z,3.50
2018-07-04T21:40:54.648Z,3.30
2018-07-04T21:43:33.230Z,3.70
2018-07-04T21:46:11.921Z,3.67
2018-07-04T21:48:50.404Z,3.50
2018-07-04T21:51:28.937Z,3.73
2018-07-04T21:54:07.422Z,3.90
2018-07-04T21:56:45.931Z,3.83
2018-07-04T21:59:24.389Z,3.50
2018-07-04T22:02:03.016Z,3.47
2018-07-04T22:04:41.689Z,3.60
2018-07-04T22:07:20.257Z,3.90
2018-07-04T22:09:58.692Z,3.40
2018-07-04T22:12:37.196Z,3.83
2018-07-04T22:15:15.776Z,3.43
2018-07-04T22:17:54.321Z,3.60
2018-07-04T22:20:32.869Z,3.90
2018-07-04T22:23:11.452Z,3.63
2018-07-04T22:25:49.857Z,3.83
2018-07-04T22:28:28.408Z,3.60
2018-07-04T22:31:06.892Z,3.40
2018-07-04T22:33:45.401Z,3.90
2018-07-04T22:36:23.904Z,3.83
2018-07-04T22:39:03.918Z,4.00
2018-07-04T22:41:42.478Z,3.40
2018-07-04T22:44:21.069Z,3.63
2018-07-04T22:46:59.611Z,3.53
2018-07-04T22:49:38.171Z,3.43
2018-07-04T22:52:16.676Z,3.90
2018-07-04T22:54:55.127Z,3.73
2018-07-04T22:57:33.557Z,3.67
2018-07-04T23:00:12.017Z,3.50
2018-07-04T23:02:50.558Z,3.50
2018-07-04T23:05:29.049Z,3.53
2018-07-04T23:08:07.468Z,3.10
2018-07-04T23:10:45.932Z,3.33
2018-07-04T23:13:24.380Z,3.43
2018-07-04T23:16:02.855Z,3.90
2018-07-04T23:18:41.440Z,3.80
2018-07-04T23:21:20.050Z,3.83
2018-07-04T23:23:58.620Z,3.90
2018-07-04T23:26:37.183Z,3.20
2018-07-04T23:29:15.737Z,3.70
2018-07-04T23:31:54.317Z,3.10
2018-07-04T23:34:32.998Z,3.40
2018-07-04T23:37:11.697Z,4.03
2018-07-04T23:39:50.200Z,3.80
2018-07-04T23:42:28.720Z,4.20
2018-07-04T23:45:07.256Z,3.73
2018-07-04T23:47:45.901Z,3.80
2018-07-04T23:50:24.632Z,3.80
2018-07-04T23:53:03.176Z,4.00
2018-07-04T23:55:41.743Z,3.50
2018-07-04T23:58:20.246Z,3.53
